createdAt,value
2018-07-01T00:01:03.556Z,22.10
2018-07-01T00:03:33.446Z,22.00
2018-07-01T00:06:03.619Z,22.00
2018-07-01T00:08:33.369Z,21.90
2018-07-01T00:11:03.169Z,21.90
2018-07-01T00:13:32.732Z,21.80
2018-07-01T00:16:02.623Z,21.90
2018-07-01T00:18:34.463Z,21.90
2018-07-01T00:21:02.971Z,21.90
2018-07-01T00:23:32.858Z,21.90
2018-07-01T00:26:02.757Z,21.80
2018-07-01T00:28:33.319Z,21.80
2018-07-01T00:31:03.724Z,21.80
2018-07-01T00:33:32.931Z,21.80
2018-07-01T00:36:02.699Z,21.80
2018-07-01T00:38:34.171Z,21.80
2018-07-01T00:41:03.416Z,21.70
2018-07-01T00:43:32.937Z,21.70
2018-07-01T00:46:02.524Z,21.60
2018-07-01T00:48:34.429Z,21.60
2018-07-01T00:51:03.060Z,21.60
2018-07-01T00:53:32.384Z,21.60
2018-07-01T00:56:04.277Z,21.50
2018-07-01T00:58:32.810Z,21.50
2018-07-01T01:01:02.645Z,21.50
2018-07-01T01:03:34.272Z,21.50
2018-07-01T01:06:03.057Z,21.40
2018-07-01T01:08:32.834Z,21.40
2018-07-01T01:11:04.760Z,21.40
2018-07-01T01:13:33.209Z,21.30
2018-07-01T01:16:02.896Z,21.30
2018-07-01T01:18:33.392Z,21.20
2018-07-01T01:21:03.721Z,21.10
2018-07-01T01:23:33.524Z,21.10
2018-07-01T01:26:03.190Z,21.00
2018-07-01T01:28:33.231Z,21.00
2018-07-01T01:31:03.686Z,21.00
2018-07-01T01:33:33.875Z,21.00
2018-07-01T01:36:03.498Z,21.00
2018-07-01T01:38:34.997Z,21.00
2018-07-01T01:41:21.245Z,20.90
2018-07-01T01:47:36.033Z,20.90
2018-07-01T02:05:09.157Z,20.60
2018-07-01T02:10:32.989Z,20.50
2018-07-01T02:13:03.469Z,20.50
2018-07-01T02:16:04.172Z,20.50
2018-07-01T02:18:33.181Z,20.50
2018-07-01T02:21:02.962Z,20.50
2018-07-01T02:23:36.882Z,20.40
2018-07-01T02:26:05.419Z,20.40
2018-07-01T02:28:33.977Z,20.40
2018-07-01T02:31:02.999Z,20.40
2018-07-01T02:33:32.848Z,20.40
2018-07-01T02:36:05.013Z,20.40
2018-07-01T02:38:33.745Z,20.30
2018-07-01T02:41:02.614Z,20.30
2018-07-01T02:43:34.192Z,20.30
2018-07-01T02:46:02.928Z,20.20
2018-07-01T02:48:34.399Z,20.20
2018-07-01T02:51:02.695Z,20.20
2018-07-01T02:53:32.800Z,20.20
2018-07-01T02:56:04.652Z,20.20
2018-07-01T02:58:33.068Z,20.10
2018-07-01T03:01:03.006Z,20.10
2018-07-01T03:03:33.054Z,20.00
2018-07-01T03:06:02.826Z,20.00
2018-07-01T03:08:33.344Z,20.00
2018-07-01T03:11:03.069Z,20.00
2018-07-01T03:13:32.796Z,20.00
2018-07-01T03:16:02.567Z,20.00
2018-07-01T03:18:34.413Z,19.90
2018-07-01T03:21:03.219Z,19.90
2018-07-01T03:23:32.507Z,19.90
2018-07-01T03:26:04.171Z,19.80
2018-07-01T03:28:32.612Z,19.80
2018-07-01T03:31:02.986Z,19.70
2018-07-01T03:33:32.567Z,19.70
2018-07-01T03:36:04.177Z,19.70
2018-07-01T03:38:32.517Z,19.70
2018-07-01T03:41:04.480Z,19.60
2018-07-01T03:43:32.955Z,19.60
2018-07-01T03:46:03.018Z,19.50
2018-07-01T03:48:32.960Z,19.50
2018-07-01T03:51:03.366Z,19.40
2018-07-01T03:53:32.986Z,19.30
2018-07-01T03:56:02.636Z,19.30
2018-07-01T03:58:33.942Z,19.30
2018-07-01T04:01:02.820Z,19.30
2018-07-01T04:03:32.624Z,19.30
2018-07-01T04:06:04.288Z,19.20
2018-07-01T04:08:32.832Z,19.20
2018-07-01T04:11:04.641Z,19.20
2018-07-01T04:13:33.062Z,19.20
2018-07-01T04:16:03.372Z,19.10
2018-07-01T04:18:32.924Z,19.10
2018-07-01T04:21:04.390Z,19.10
2018-07-01T04:23:32.739Z,19.10
2018-07-01T04:26:02.553Z,18.90
2018-07-01T04:28:34.198Z,18.70
2018-07-01T04:31:02.818Z,18.70
2018-07-01T04:33:32.881Z,18.70
2018-07-01T04:36:03.306Z,18.70
2018-07-01T04:38:33.137Z,18.70
2018-07-01T04:41:03.506Z,18.70
2018-07-01T04:43:33.346Z,18.70
2018-07-01T04:46:03.060Z,18.60
2018-07-01T04:48:32.840Z,18.50
2018-07-01T04:51:04.341Z,18.50
2018-07-01T04:53:32.769Z,18.30
2018-07-01T04:56:02.721Z,18.30
2018-07-01T04:58:32.582Z,18.30
2018-07-01T05:01:04.370Z,18.20
2018-07-01T05:03:32.827Z,18.20
2018-07-01T05:06:02.916Z,18.30
2018-07-01T05:08:34.427Z,18.30
2018-07-01T05:11:02.850Z,18.20
2018-07-01T05:13:33.011Z,18.30
2018-07-01T05:16:02.709Z,18.30
2018-07-01T05:18:34.463Z,18.30
2018-07-01T05:21:03.007Z,18.40
2018-07-01T05:23:32.986Z,18.50
2018-07-01T05:26:02.942Z,18.50
2018-07-01T05:28:34.896Z,18.50
2018-07-01T05:31:03.459Z,18.30
2018-07-01T05:33:32.971Z,18.30
2018-07-01T05:36:04.437Z,18.00
2018-07-01T05:38:32.879Z,18.10
2018-07-01T05:41:03.104Z,17.90
2018-07-01T05:43:33.023Z,17.80
2018-07-01T05:46:04.414Z,17.70
2018-07-01T05:48:33.495Z,17.60
2018-07-01T05:51:03.327Z,17.50
2018-07-01T05:53:33.920Z,17.60
2018-07-01T05:56:03.580Z,17.60
2018-07-01T05:58:33.985Z,17.70
2018-07-01T06:01:03.671Z,17.70
2018-07-01T06:03:33.397Z,17.70
2018-07-01T06:06:04.086Z,17.80
2018-07-01T06:08:33.856Z,17.80
2018-07-01T06:11:04.139Z,17.80
2018-07-01T06:13:33.114Z,17.90
2018-07-01T06:16:03.955Z,18.00
2018-07-01T06:18:33.330Z,18.00
2018-07-01T06:21:03.501Z,18.00
2018-07-01T06:23:32.976Z,18.10
2018-07-01T06:26:03.721Z,18.10
2018-07-01T06:28:33.562Z,18.10
2018-07-01T06:31:02.515Z,18.10
2018-07-01T06:33:34.475Z,18.10
2018-07-01T06:36:02.959Z,18.20
2018-07-01T06:38:32.855Z,18.30
2018-07-01T06:41:04.728Z,18.40
2018-07-01T06:43:33.260Z,18.40
2018-07-01T06:46:03.599Z,18.40
2018-07-01T06:48:33.879Z,18.50
2018-07-01T06:51:03.911Z,18.50
2018-07-01T06:53:33.656Z,18.60
2018-07-01T06:56:03.604Z,18.60
2018-07-01T06:58:34.242Z,18.70
2018-07-01T07:01:03.556Z,18.60
2018-07-01T07:03:33.311Z,18.60
2018-07-01T07:06:03.368Z,18.70
2018-07-01T07:08:33.934Z,18.70
2018-07-01T07:11:04.273Z,18.70
2018-07-01T07:13:34.460Z,18.80
2018-07-01T07:16:03.444Z,18.80
2018-07-01T07:18:33.354Z,18.80
2018-07-01T07:21:03.852Z,18.80
2018-07-01T07:23:33.966Z,18.90
2018-07-01T07:26:04.220Z,18.90
2018-07-01T07:28:33.039Z,19.00
2018-07-01T07:31:03.686Z,19.10
2018-07-01T07:33:33.164Z,19.20
2018-07-01T07:36:04.308Z,19.20
2018-07-01T07:38:33.433Z,19.30
2018-07-01T07:41:03.464Z,19.40
2018-07-01T07:43:33.477Z,19.50
2018-07-01T07:46:03.418Z,19.60
2018-07-01T07:48:33.393Z,19.60
2018-07-01T07:51:03.812Z,19.70
2018-07-01T07:53:33.718Z,19.70
2018-07-01T07:56:03.355Z,19.80
2018-07-01T07:58:33.360Z,19.90
2018-07-01T08:01:04.160Z,19.80
2018-07-01T08:03:34.010Z,19.80
2018-07-01T08:06:03.846Z,19.80
2018-07-01T08:08:33.484Z,19.80
2018-07-01T08:11:03.889Z,19.80
2018-07-01T08:13:33.473Z,19.80
2018-07-01T08:16:03.368Z,20.00
2018-07-01T08:18:33.261Z,20.10
2018-07-01T08:21:03.464Z,20.10
2018-07-01T08:23:33.207Z,20.20
2018-07-01T08:26:03.564Z,20.20
2018-07-01T08:28:33.446Z,20.30
2018-07-01T08:31:03.105Z,20.40
2018-07-01T08:33:32.613Z,20.40
2018-07-01T08:36:04.708Z,20.40
2018-07-01T08:38:33.205Z,20.40
2018-07-01T08:41:03.225Z,20.40
2018-07-01T08:43:33.164Z,20.40
2018-07-01T08:46:03.671Z,20.50
2018-07-01T08:48:32.411Z,20.50
2018-07-01T08:51:04.492Z,20.50
2018-07-01T08:53:33.998Z,20.60
2018-07-01T08:56:03.836Z,20.70
2018-07-01T08:58:33.660Z,20.80
2018-07-01T09:01:03.254Z,20.80
2018-07-01T09:03:33.301Z,20.80
2018-07-01T09:06:03.979Z,20.80
2018-07-01T09:08:33.487Z,20.90
2018-07-01T09:11:03.233Z,20.90
2018-07-01T09:13:32.796Z,21.00
2018-07-01T09:16:04.556Z,21.00
2018-07-01T09:18:33.299Z,21.00
2018-07-01T09:21:03.791Z,21.10
2018-07-01T09:23:33.965Z,21.20
2018-07-01T09:26:03.238Z,21.20
2018-07-01T09:28:33.049Z,21.20
2018-07-01T09:31:04.528Z,21.30
2018-07-01T09:33:33.025Z,21.30
2018-07-01T09:36:02.933Z,21.20
2018-07-01T09:38:34.936Z,21.30
2018-07-01T09:41:03.409Z,21.30
2018-07-01T09:43:33.368Z,21.30
2018-07-01T09:46:03.471Z,21.30
2018-07-01T09:48:33.749Z,21.30
2018-07-01T09:51:03.467Z,21.40
2018-07-01T09:53:33.493Z,21.50
2018-07-01T09:56:04.044Z,21.50
2018-07-01T09:58:33.833Z,21.60
2018-07-01T10:01:04.356Z,21.70
2018-07-01T10:03:34.576Z,21.70
2018-07-01T10:06:03.129Z,21.60
2018-07-01T10:08:33.036Z,21.70
2018-07-01T10:11:04.958Z,21.70
2018-07-01T10:13:34.711Z,21.80
2018-07-01T10:16:03.615Z,21.80
2018-07-01T10:18:35.044Z,21.90
2018-07-01T10:21:03.747Z,22.00
2018-07-01T10:23:33.236Z,22.10
2018-07-01T10:26:03.123Z,22.20
2018-07-01T10:28:33.608Z,22.30
2018-07-01T10:31:03.129Z,22.40
2018-07-01T10:33:33.349Z,22.40
2018-07-01T10:36:03.153Z,22.50
2018-07-01T10:38:33.643Z,22.60
2018-07-01T10:41:03.334Z,22.50
2018-07-01T10:43:33.277Z,22.50
2018-07-01T10:46:03.936Z,22.60
2018-07-01T10:48:33.545Z,22.80
2018-07-01T10:51:03.327Z,22.80
2018-07-01T10:53:32.888Z,22.70
2018-07-01T10:56:05.046Z,22.70
2018-07-01T10:58:33.750Z,22.80
2018-07-01T11:01:03.084Z,22.90
2018-07-01T11:03:34.872Z,23.20
2018-07-01T11:06:03.880Z,23.30
2018-07-01T11:08:34.335Z,23.50
2018-07-01T11:11:03.466Z,23.60
2018-07-01T11:13:33.764Z,23.60
2018-07-01T11:16:04.057Z,23.60
2018-07-01T11:18:33.940Z,23.60
2018-07-01T11:21:03.709Z,23.60
2018-07-01T11:23:33.552Z,23.80
2018-07-01T11:26:03.008Z,23.70
2018-07-01T11:28:33.215Z,23.90
2018-07-01T11:31:03.824Z,23.80
2018-07-01T11:33:33.699Z,23.70
2018-07-01T11:36:03.329Z,23.90
2018-07-01T11:38:33.970Z,23.90
2018-07-01T11:41:03.431Z,23.90
2018-07-01T11:43:33.305Z,23.90
2018-07-01T11:46:05.120Z,24.00
2018-07-01T11:48:33.852Z,24.20
2018-07-01T11:51:03.363Z,24.40
2018-07-01T11:53:33.707Z,24.40
2018-07-01T11:56:04.296Z,24.30
2018-07-01T11:58:33.786Z,24.30
2018-07-01T12:01:03.788Z,24.30
2018-07-01T12:03:33.513Z,24.50
2018-07-01T12:06:03.566Z,24.60
2018-07-01T12:08:34.261Z,24.70
2018-07-01T12:11:04.053Z,24.70
2018-07-01T12:13:33.768Z,24.70
2018-07-01T12:16:03.886Z,24.70
2018-07-01T12:18:33.933Z,24.80
2018-07-01T12:21:04.436Z,24.90
2018-07-01T12:23:34.874Z,25.00
2018-07-01T12:26:04.495Z,25.10
2018-07-01T12:28:33.656Z,25.30
2018-07-01T12:31:04.384Z,25.40
2018-07-01T12:33:33.312Z,25.40
2018-07-01T12:36:05.880Z,25.30
2018-07-01T12:38:34.958Z,25.30
2018-07-01T12:41:03.840Z,25.20
2018-07-01T12:43:34.389Z,25.30
2018-07-01T12:46:04.281Z,25.40
2018-07-01T12:48:34.346Z,25.60
2018-07-01T12:51:04.748Z,25.70
2018-07-01T12:53:33.605Z,25.60
2018-07-01T12:56:04.366Z,25.60
2018-07-01T12:58:33.549Z,25.30
2018-07-01T13:01:04.684Z,25.40
2018-07-01T13:03:33.726Z,25.50
2018-07-01T13:06:03.800Z,25.40
2018-07-01T13:08:33.740Z,25.50
2018-07-01T13:11:04.453Z,25.70
2018-07-01T13:13:33.652Z,25.80
2018-07-01T13:16:04.274Z,25.90
2018-07-01T13:18:34.957Z,25.70
2018-07-01T13:21:04.431Z,25.90
2018-07-01T13:23:33.730Z,25.90
2018-07-01T13:26:04.157Z,25.90
2018-07-01T13:28:34.177Z,26.00
2018-07-01T13:31:04.049Z,25.90
2018-07-01T13:33:34.642Z,26.00
2018-07-01T13:36:04.661Z,26.20
2018-07-01T13:38:36.024Z,26.00
2018-07-01T13:41:05.651Z,25.90
2018-07-01T13:43:34.945Z,26.00
2018-07-01T13:46:03.654Z,26.20
2018-07-01T13:48:34.229Z,26.20
2018-07-01T13:51:04.315Z,26.30
2018-07-01T13:53:33.936Z,26.40
2018-07-01T13:56:06.032Z,26.10
2018-07-01T13:58:35.357Z,26.20
2018-07-01T14:01:04.469Z,26.10
2018-07-01T14:03:34.452Z,26.10
2018-07-01T14:06:03.475Z,26.20
2018-07-01T14:08:34.846Z,26.30
2018-07-01T14:11:04.922Z,26.30
2018-07-01T14:13:34.010Z,26.20
2018-07-01T14:16:04.028Z,26.20
2018-07-01T14:18:35.614Z,26.20
2018-07-01T14:21:05.088Z,26.40
2018-07-01T14:23:37.289Z,26.50
2018-07-01T14:26:06.448Z,26.50
2018-07-01T14:28:35.349Z,26.40
2018-07-01T14:31:04.592Z,26.20
2018-07-01T14:33:33.784Z,26.00
2018-07-01T14:36:04.682Z,26.20
2018-07-01T14:38:33.836Z,26.30
2018-07-01T14:41:04.194Z,26.60
2018-07-01T14:43:34.094Z,26.50
2018-07-01T14:46:03.887Z,26.60
2018-07-01T14:48:34.457Z,26.60
2018-07-01T14:51:04.218Z,26.70
2018-07-01T14:53:34.032Z,26.30
2018-07-01T14:56:05.923Z,26.50
2018-07-01T14:58:34.882Z,26.60
2018-07-01T15:01:04.555Z,26.40
2018-07-01T15:03:34.506Z,26.40
2018-07-01T15:06:06.568Z,26.50
2018-07-01T15:08:36.669Z,26.50
2018-07-01T15:11:05.353Z,26.60
2018-07-01T15:13:34.448Z,26.60
2018-07-01T15:16:03.781Z,26.50
2018-07-01T15:18:36.111Z,26.50
2018-07-01T15:21:06.845Z,26.30
2018-07-01T15:23:36.885Z,26.40
2018-07-01T15:26:07.005Z,26.40
2018-07-01T15:28:37.038Z,26.40
2018-07-01T15:31:07.330Z,26.20
2018-07-01T15:33:36.190Z,26.20
2018-07-01T15:36:05.313Z,26.20
2018-07-01T15:38:35.081Z,26.00
2018-07-01T15:41:04.285Z,26.10
2018-07-01T15:43:34.545Z,26.20
2018-07-01T15:46:04.732Z,26.20
2018-07-01T15:48:34.331Z,26.10
2018-07-01T15:51:03.932Z,26.00
2018-07-01T15:53:35.161Z,26.00
2018-07-01T15:56:04.481Z,25.90
2018-07-01T15:58:33.964Z,25.70
2018-07-01T16:01:06.736Z,25.90
2018-07-01T16:03:35.596Z,26.00
2018-07-01T16:09:10.233Z,26.30
2018-07-01T16:14:26.296Z,26.50
2018-07-01T16:19:33.285Z,26.30
2018-07-01T16:22:02.074Z,26.10
2018-07-01T16:31:34.425Z,26.30
2018-07-01T16:34:04.132Z,26.70
2018-07-01T16:36:32.924Z,26.60
2018-07-01T16:39:02.084Z,26.50
2018-07-01T16:41:33.065Z,26.50
2018-07-01T16:44:02.036Z,26.40
2018-07-01T16:46:32.430Z,26.50
2018-07-01T16:49:03.232Z,26.60
2018-07-01T16:51:33.304Z,26.60
2018-07-01T16:54:02.568Z,26.10
2018-07-01T16:56:32.228Z,26.10
2018-07-01T16:59:02.591Z,26.10
2018-07-01T17:01:33.641Z,26.00
2018-07-01T17:04:02.647Z,26.10
2018-07-01T17:06:32.447Z,26.10
2018-07-01T17:09:03.131Z,26.10
2018-07-01T17:11:32.165Z,26.20
2018-07-01T17:14:01.918Z,26.50
2018-07-01T17:16:34.181Z,26.40
2018-07-01T17:19:02.902Z,26.50
2018-07-01T17:21:32.960Z,26.60
2018-07-01T17:24:02.866Z,26.60
2018-07-01T17:26:32.428Z,26.50
2018-07-01T17:29:02.994Z,26.40
2018-07-01T17:34:21.665Z,25.90
2018-07-01T17:37:04.700Z,26.00
2018-07-01T17:39:33.542Z,26.10
2018-07-01T17:42:03.095Z,26.20
2018-07-01T17:44:32.297Z,26.10
2018-07-01T17:47:03.858Z,26.30
2018-07-01T17:49:32.740Z,26.30
2018-07-01T17:52:02.569Z,26.30
2018-07-01T17:54:32.801Z,26.40
2018-07-01T17:57:02.269Z,26.10
2018-07-01T18:02:33.125Z,25.80
2018-07-01T18:05:02.396Z,25.90
2018-07-01T18:07:33.128Z,25.80
2018-07-01T18:13:05.249Z,25.80
2018-07-01T18:15:35.569Z,25.60
2018-07-01T18:18:05.759Z,25.70
2018-07-01T18:20:34.362Z,25.50
2018-07-01T18:23:35.842Z,25.50
2018-07-01T18:25:32.247Z,25.60
2018-07-01T18:28:15.016Z,25.50
2018-07-01T18:30:33.908Z,25.60
2018-07-01T18:33:03.090Z,25.70
2018-07-01T18:35:32.880Z,25.70
2018-07-01T18:38:02.339Z,25.70
2018-07-01T18:40:32.570Z,25.70
2018-07-01T18:43:03.822Z,25.80
2018-07-01T18:45:32.722Z,25.80
2018-07-01T18:48:02.622Z,25.80
2018-07-01T18:50:37.721Z,25.70
2018-07-01T18:53:07.177Z,25.80
2018-07-01T18:55:36.527Z,25.90
2018-07-01T18:58:06.108Z,26.00
2018-07-01T19:00:36.310Z,25.80
2018-07-01T19:03:06.704Z,25.90
2018-07-01T19:05:35.586Z,25.80
2018-07-01T19:08:04.406Z,25.90
2018-07-01T19:10:34.570Z,25.80
2018-07-01T19:13:04.215Z,25.90
2018-07-01T19:15:33.484Z,25.90
2018-07-01T19:18:03.729Z,25.60
2018-07-01T19:20:32.904Z,25.30
2018-07-01T19:23:06.979Z,25.40
2018-07-01T19:25:36.095Z,25.20
2018-07-01T19:28:06.148Z,25.10
2018-07-01T19:30:35.318Z,25.20
2018-07-01T19:33:04.413Z,25.20
2018-07-01T19:35:33.573Z,24.90
2018-07-01T19:38:04.203Z,24.80
2018-07-01T19:40:34.080Z,24.70
2018-07-01T19:43:03.990Z,24.80
2018-07-01T19:45:33.023Z,24.70
2018-07-01T19:48:02.579Z,24.80
2018-07-01T19:50:40.948Z,24.90
2018-07-01T19:56:02.551Z,24.60
2018-07-01T19:58:32.684Z,24.50
2018-07-01T20:01:04.112Z,24.50
2018-07-01T20:03:33.147Z,24.50
2018-07-01T20:06:02.357Z,24.60
2018-07-01T20:08:32.776Z,24.60
2018-07-01T20:11:02.948Z,24.70
2018-07-01T20:13:32.800Z,24.60
2018-07-01T20:16:01.631Z,24.60
2018-07-01T20:18:32.327Z,24.60
2018-07-01T20:21:02.491Z,24.60
2018-07-01T20:23:34.342Z,24.60
2018-07-01T20:26:03.132Z,24.50
2018-07-01T20:28:32.905Z,24.50
2018-07-01T20:31:03.299Z,24.30
2018-07-01T20:33:33.328Z,24.20
2018-07-01T20:36:02.623Z,24.20
2018-07-01T20:38:33.165Z,24.10
2018-07-01T20:44:05.292Z,23.90
2018-07-01T20:46:34.296Z,23.80
2018-07-01T20:49:03.339Z,23.80
2018-07-01T20:51:32.282Z,23.80
2018-07-01T20:54:03.272Z,23.80
2018-07-01T20:56:32.331Z,23.80
2018-07-01T20:59:03.573Z,23.70
2018-07-01T21:01:32.719Z,23.70
2018-07-01T21:04:03.003Z,23.60
2018-07-01T21:06:33.391Z,23.40
2018-07-01T21:09:02.728Z,23.40
2018-07-01T21:11:33.789Z,23.30
2018-07-01T21:14:02.881Z,23.40
2018-07-01T21:16:33.378Z,23.40
2018-07-01T21:19:02.923Z,23.40
2018-07-01T21:21:32.491Z,23.40
2018-07-01T21:24:03.728Z,23.30
2018-07-01T21:26:33.391Z,23.30
2018-07-01T21:29:02.500Z,23.20
2018-07-01T21:31:33.356Z,23.20
2018-07-01T21:34:02.929Z,23.10
2018-07-01T21:36:32.795Z,23.10
2018-07-01T21:39:02.480Z,23.10
2018-07-01T21:41:33.210Z,23.10
2018-07-01T21:44:03.181Z,23.10
2018-07-01T21:46:33.329Z,23.00
2018-07-01T21:49:04.448Z,22.90
2018-07-01T21:51:33.110Z,22.90
2018-07-01T21:54:03.260Z,22.80
2018-07-01T21:56:33.514Z,22.70
2018-07-01T21:59:03.192Z,22.60
2018-07-01T22:01:33.413Z,22.60
2018-07-01T22:04:02.983Z,22.50
2018-07-01T22:06:38.649Z,22.50
2018-07-01T22:09:07.982Z,22.50
2018-07-01T22:12:01.361Z,22.40
2018-07-01T22:14:36.060Z,22.40
2018-07-01T22:17:06.045Z,22.30
2018-07-01T22:19:35.929Z,22.20
2018-07-01T22:22:04.653Z,22.20
2018-07-01T22:24:34.383Z,22.20
2018-07-01T22:27:03.146Z,22.20
2018-07-01T22:29:32.961Z,22.20
2018-07-01T22:32:02.856Z,22.20
2018-07-01T22:34:33.004Z,22.10
2018-07-01T22:37:03.030Z,22.00
2018-07-01T22:39:33.235Z,21.90
2018-07-01T22:42:03.252Z,21.80
2018-07-01T22:44:32.836Z,21.80
2018-07-01T22:47:02.899Z,21.90
2018-07-01T22:49:32.459Z,21.90
2018-07-01T22:52:02.328Z,21.80
2018-07-01T22:54:32.750Z,21.80
2018-07-01T22:57:02.888Z,21.80
2018-07-01T22:59:35.351Z,21.80
2018-07-01T23:12:07.225Z,21.70
2018-07-01T23:14:35.957Z,21.70
2018-07-01T23:17:04.808Z,21.70
2018-07-01T23:19:39.342Z,21.60
2018-07-01T23:22:07.973Z,21.60
2018-07-01T23:24:36.556Z,21.60
2018-07-01T23:27:05.654Z,21.50
2018-07-01T23:30:09.109Z,21.40
2018-07-01T23:32:38.500Z,21.40
2018-07-01T23:35:07.156Z,21.30
2018-07-01T23:37:35.760Z,21.30
2018-07-01T23:40:04.659Z,21.20
2018-07-01T23:42:33.621Z,21.20
2018-07-01T23:45:02.184Z,21.20
2018-07-01T23:47:32.238Z,21.20
2018-07-01T23:50:04.685Z,21.20
2018-07-01T23:52:33.439Z,21.10
2018-07-01T23:55:02.698Z,21.10
2018-07-01T23:57:32.576Z,21.10
